createdAt,value
2018-12-31T00:01:43.196Z,22.80
2018-12-31T00:04:16.068Z,21.03
2018-12-31T00:06:46.602Z,21.30
2018-12-31T00:09:19.420Z,20.77
2018-12-31T00:11:49.892Z,21.23
2018-12-31T00:14:20.804Z,21.80
2018-12-31T00:16:51.492Z,18.50
2018-12-31T00:19:22.776Z,17.20
2018-12-31T00:21:54.014Z,23.17
2018-12-31T00:24:24.741Z,21.47
2018-12-31T00:26:54.937Z,21.50
2018-12-31T00:29:27.901Z,24.03
2018-12-31T00:31:58.047Z,23.30
2018-12-31T00:34:28.979Z,31.53
2018-12-31T00:37:00.024Z,23.43
2018-12-31T00:39:29.727Z,26.90
2018-12-31T00:41:59.377Z,33.20
2018-12-31T00:44:29.060Z,31.60
2018-12-31T00:46:58.779Z,21.80
2018-12-31T00:49:28.443Z,35.20
2018-12-31T00:51:58.061Z,25.53
2018-12-31T00:54:27.774Z,22.10
2018-12-31T00:56:57.730Z,33.00
2018-12-31T00:59:27.392Z,35.40
2018-12-31T01:01:57.157Z,25.33
2018-12-31T01:04:26.851Z,56.23
2018-12-31T01:06:56.510Z,27.60
2018-12-31T01:09:26.783Z,36.80
2018-12-31T01:11:56.499Z,37.93
2018-12-31T01:14:26.175Z,21.83
2018-12-31T01:16:55.907Z,31.27
2018-12-31T01:19:28.659Z,23.30
2018-12-31T01:21:59.679Z,22.03
2018-12-31T01:24:29.351Z,20.47
2018-12-31T01:26:58.996Z,16.37
2018-12-31T01:29:28.655Z,17.80
2018-12-31T01:31:58.333Z,30.30
2018-12-31T01:34:27.974Z,15.60
2018-12-31T01:36:57.596Z,29.93
2018-12-31T01:39:27.257Z,21.83
2018-12-31T01:41:56.941Z,21.17
2018-12-31T01:44:26.627Z,23.40
2018-12-31T01:46:56.273Z,22.17
2018-12-31T01:49:25.959Z,26.23
2018-12-31T01:51:55.599Z,26.50
2018-12-31T01:54:25.258Z,21.10
2018-12-31T01:56:55.050Z,23.70
2018-12-31T01:59:24.725Z,21.70
2018-12-31T02:01:54.426Z,20.77
2018-12-31T02:04:24.187Z,16.43
2018-12-31T02:06:53.886Z,20.73
2018-12-31T02:09:24.188Z,20.97
2018-12-31T02:11:53.883Z,21.93
2018-12-31T02:14:23.637Z,23.90
2018-12-31T02:16:53.370Z,26.17
2018-12-31T02:19:23.023Z,20.57
2018-12-31T02:21:52.676Z,24.40
2018-12-31T02:24:22.371Z,18.00
2018-12-31T02:26:52.027Z,19.27
2018-12-31T02:29:21.689Z,23.93
2018-12-31T02:31:51.324Z,15.77
2018-12-31T02:34:21.253Z,20.17
2018-12-31T02:36:50.933Z,18.17
2018-12-31T02:39:20.610Z,17.53
2018-12-31T02:41:50.279Z,17.53
2018-12-31T02:44:19.966Z,17.47
2018-12-31T02:46:49.596Z,18.90
2018-12-31T02:49:19.285Z,27.47
2018-12-31T02:51:48.928Z,20.73
2018-12-31T02:54:18.711Z,15.93
2018-12-31T02:56:48.387Z,18.33
2018-12-31T02:59:18.760Z,15.33
2018-12-31T03:01:48.513Z,14.37
2018-12-31T03:04:18.157Z,20.80
2018-12-31T03:06:48.770Z,16.37
2018-12-31T03:09:19.083Z,14.87
2018-12-31T03:11:48.807Z,16.37
2018-12-31T03:14:18.456Z,16.97
2018-12-31T03:16:48.125Z,15.27
2018-12-31T03:19:17.807Z,17.83
2018-12-31T03:21:47.522Z,16.83
2018-12-31T03:24:17.210Z,15.57
2018-12-31T03:26:47.018Z,15.80
2018-12-31T03:29:16.769Z,16.77
2018-12-31T03:31:47.006Z,24.70
2018-12-31T03:34:16.678Z,21.73
2018-12-31T03:36:46.311Z,21.87
2018-12-31T03:39:15.952Z,16.07
2018-12-31T03:41:45.700Z,15.13
2018-12-31T03:44:15.886Z,13.70
2018-12-31T03:46:45.598Z,18.27
2018-12-31T03:49:15.261Z,14.70
2018-12-31T03:51:44.911Z,18.43
2018-12-31T03:54:14.592Z,18.97
2018-12-31T03:56:44.298Z,14.00
2018-12-31T03:59:13.982Z,15.90
2018-12-31T04:01:43.648Z,15.87
2018-12-31T04:04:13.378Z,14.23
2018-12-31T04:06:43.038Z,16.17
2018-12-31T04:09:12.737Z,15.23
2018-12-31T04:11:42.387Z,14.37
2018-12-31T04:14:12.041Z,13.10
2018-12-31T04:16:41.723Z,14.57
2018-12-31T04:19:11.414Z,12.47
2018-12-31T04:21:41.118Z,17.53
2018-12-31T04:24:10.792Z,16.33
2018-12-31T04:26:40.556Z,15.37
2018-12-31T04:29:10.198Z,19.43
2018-12-31T04:31:40.879Z,17.37
2018-12-31T04:34:10.528Z,13.53
2018-12-31T04:36:40.177Z,11.90
2018-12-31T04:39:09.836Z,12.53
2018-12-31T04:41:39.510Z,14.87
2018-12-31T04:44:09.146Z,13.70
2018-12-31T04:46:38.907Z,12.23
2018-12-31T04:49:08.579Z,19.03
2018-12-31T04:51:38.231Z,16.10
2018-12-31T04:54:07.882Z,17.27
2018-12-31T04:56:37.538Z,13.80
2018-12-31T04:59:07.191Z,12.40
2018-12-31T05:01:36.908Z,15.87
2018-12-31T05:04:06.611Z,13.57
2018-12-31T05:06:36.291Z,14.23
2018-12-31T05:09:07.034Z,18.00
2018-12-31T05:11:36.727Z,17.87
2018-12-31T05:14:06.394Z,15.20
2018-12-31T05:16:36.090Z,12.20
2018-12-31T05:19:06.009Z,13.27
2018-12-31T05:21:35.844Z,12.23
2018-12-31T05:24:05.473Z,13.23
2018-12-31T05:26:35.192Z,17.07
2018-12-31T05:29:04.923Z,14.97
2018-12-31T05:31:34.574Z,12.80
2018-12-31T05:34:04.215Z,12.03
2018-12-31T05:36:33.895Z,12.77
2018-12-31T05:39:04.770Z,12.90
2018-12-31T05:41:34.451Z,13.03
2018-12-31T05:44:04.075Z,14.03
2018-12-31T05:46:33.778Z,13.40
2018-12-31T05:49:03.419Z,13.53
2018-12-31T05:51:33.154Z,12.63
2018-12-31T05:54:02.786Z,15.20
2018-12-31T05:56:32.467Z,15.30
2018-12-31T05:59:02.282Z,12.87
2018-12-31T06:01:31.970Z,14.60
2018-12-31T06:04:01.606Z,15.70
2018-12-31T06:06:31.364Z,15.93
2018-12-31T06:09:00.992Z,13.87
2018-12-31T06:11:30.631Z,14.40
2018-12-31T06:14:00.285Z,14.03
2018-12-31T06:16:29.931Z,11.90
2018-12-31T06:18:59.599Z,13.93
2018-12-31T06:21:29.254Z,12.50
2018-12-31T06:23:58.890Z,12.60
2018-12-31T06:26:28.562Z,14.63
2018-12-31T06:28:58.589Z,12.50
2018-12-31T06:31:28.303Z,15.20
2018-12-31T06:33:58.146Z,13.03
2018-12-31T06:36:27.774Z,13.03
2018-12-31T06:38:59.937Z,16.80
2018-12-31T06:41:29.615Z,15.87
2018-12-31T06:43:59.231Z,17.77
2018-12-31T06:46:28.935Z,14.10
2018-12-31T06:48:58.610Z,15.70
2018-12-31T06:51:28.763Z,13.30
2018-12-31T06:53:58.418Z,13.93
2018-12-31T06:56:28.120Z,14.87
2018-12-31T06:58:57.758Z,13.53
2018-12-31T07:01:27.418Z,15.20
2018-12-31T07:03:57.176Z,13.80
2018-12-31T07:06:29.834Z,17.20
2018-12-31T07:08:59.481Z,11.77
2018-12-31T07:11:29.176Z,13.77
2018-12-31T07:13:58.842Z,12.60
2018-12-31T07:16:29.133Z,13.13
2018-12-31T07:18:58.852Z,14.50
2018-12-31T07:21:29.745Z,12.13
2018-12-31T07:23:59.543Z,11.13
2018-12-31T07:26:29.266Z,10.67
2018-12-31T07:28:59.021Z,12.13
2018-12-31T07:31:28.657Z,10.67
2018-12-31T07:33:58.332Z,15.43
2018-12-31T07:36:27.977Z,10.43
2018-12-31T07:38:57.662Z,10.63
2018-12-31T07:41:27.771Z,8.60
2018-12-31T07:44:00.138Z,9.63
2018-12-31T07:46:28.844Z,11.80
2018-12-31T07:48:58.502Z,9.33
2018-12-31T07:51:28.174Z,10.70
2018-12-31T07:53:57.834Z,9.77
2018-12-31T07:56:27.487Z,12.87
2018-12-31T07:58:57.147Z,9.43
2018-12-31T08:01:26.883Z,10.20
2018-12-31T08:03:56.568Z,10.70
2018-12-31T08:06:26.316Z,10.80
2018-12-31T08:08:56.163Z,11.70
2018-12-31T08:11:25.923Z,12.63
2018-12-31T08:13:55.578Z,10.80
2018-12-31T08:16:29.355Z,9.53
2018-12-31T08:19:00.091Z,10.67
2018-12-31T08:21:29.747Z,8.97
2018-12-31T08:23:59.401Z,9.00
2018-12-31T08:26:29.034Z,9.90
2018-12-31T08:28:58.799Z,10.00
2018-12-31T08:31:28.447Z,10.20
2018-12-31T08:33:58.137Z,10.50
2018-12-31T08:36:30.519Z,10.73
2018-12-31T08:39:00.231Z,8.23
2018-12-31T08:41:29.854Z,10.53
2018-12-31T08:43:59.523Z,7.80
2018-12-31T08:46:29.188Z,8.77
2018-12-31T08:48:58.937Z,11.27
2018-12-31T08:51:28.609Z,11.87
2018-12-31T08:53:58.275Z,8.10
2018-12-31T08:56:27.991Z,10.70
2018-12-31T08:59:03.113Z,8.03
2018-12-31T09:01:32.754Z,10.37
2018-12-31T09:04:02.440Z,8.77
2018-12-31T09:06:32.122Z,11.57
2018-12-31T09:09:01.883Z,13.33
2018-12-31T09:11:31.611Z,10.80
2018-12-31T09:14:01.259Z,9.83
2018-12-31T09:16:31.360Z,9.33
2018-12-31T09:19:02.231Z,11.40
2018-12-31T09:21:31.907Z,10.87
2018-12-31T09:24:01.801Z,9.23
2018-12-31T09:26:31.665Z,8.20
2018-12-31T09:29:04.551Z,9.63
2018-12-31T09:31:34.168Z,8.70
2018-12-31T09:34:04.930Z,9.97
2018-12-31T09:36:34.615Z,7.67
2018-12-31T09:39:06.171Z,8.50
2018-12-31T09:41:36.422Z,10.20
2018-12-31T09:44:06.157Z,9.20
2018-12-31T09:46:35.897Z,7.30
2018-12-31T09:49:05.555Z,8.40
2018-12-31T09:51:35.268Z,8.77
2018-12-31T09:54:04.923Z,9.93
2018-12-31T09:56:34.630Z,9.63
2018-12-31T09:59:04.344Z,10.63
2018-12-31T10:01:33.968Z,11.73
2018-12-31T10:04:03.888Z,11.43
2018-12-31T10:06:38.577Z,14.43
2018-12-31T10:09:08.347Z,13.67
2018-12-31T10:11:38.178Z,10.73
2018-12-31T10:14:08.016Z,11.13
2018-12-31T10:16:37.758Z,9.83
2018-12-31T10:19:07.489Z,16.90
2018-12-31T10:21:40.876Z,14.93
2018-12-31T10:24:10.069Z,10.60
2018-12-31T10:26:41.175Z,14.27
2018-12-31T10:29:10.955Z,9.60
2018-12-31T10:31:40.705Z,7.37
2018-12-31T10:34:10.559Z,10.03
2018-12-31T10:36:40.578Z,9.10
2018-12-31T10:39:10.355Z,7.87
2018-12-31T10:41:40.095Z,12.93
2018-12-31T10:44:09.744Z,9.00
2018-12-31T10:46:39.405Z,13.00
2018-12-31T10:49:09.240Z,13.63
2018-12-31T10:51:39.379Z,12.00
2018-12-31T10:54:09.194Z,8.97
2018-12-31T10:56:39.167Z,8.17
2018-12-31T10:59:08.815Z,10.50
2018-12-31T11:01:38.520Z,9.17
2018-12-31T11:04:08.381Z,12.63
2018-12-31T11:06:38.000Z,11.67
2018-12-31T11:09:08.055Z,9.67
2018-12-31T11:11:37.778Z,9.63
2018-12-31T11:14:07.519Z,10.17
2018-12-31T11:16:37.185Z,10.77
2018-12-31T11:19:07.365Z,11.00
2018-12-31T11:21:37.222Z,11.03
2018-12-31T11:24:06.899Z,9.73
2018-12-31T11:26:36.562Z,10.63
2018-12-31T11:29:06.261Z,7.50
2018-12-31T11:31:35.933Z,14.87
2018-12-31T11:34:05.603Z,7.83
2018-12-31T11:36:35.256Z,8.57
2018-12-31T11:39:06.851Z,9.00
2018-12-31T11:41:36.490Z,9.90
2018-12-31T11:44:06.175Z,9.83
2018-12-31T11:46:35.838Z,9.27
2018-12-31T11:49:05.471Z,9.40
2018-12-31T11:51:35.191Z,11.27
2018-12-31T11:54:04.851Z,9.17
2018-12-31T11:56:34.519Z,9.60
2018-12-31T11:59:04.162Z,10.13
2018-12-31T12:01:33.922Z,11.97
2018-12-31T12:04:03.682Z,11.40
2018-12-31T12:06:33.322Z,10.10
2018-12-31T12:09:03.769Z,8.53
2018-12-31T12:11:33.455Z,11.97
2018-12-31T12:14:03.130Z,8.20
2018-12-31T12:16:32.865Z,7.97
2018-12-31T12:19:02.559Z,8.80
2018-12-31T12:21:32.247Z,10.57
2018-12-31T12:24:04.209Z,8.23
2018-12-31T12:26:33.874Z,7.57
2018-12-31T12:29:04.171Z,9.70
2018-12-31T12:31:34.189Z,11.93
2018-12-31T12:34:03.871Z,12.57
2018-12-31T12:36:33.564Z,53.37
2018-12-31T12:39:04.429Z,27.67
2018-12-31T12:41:34.099Z,16.90
2018-12-31T12:44:03.754Z,18.10
2018-12-31T12:46:33.506Z,22.97
2018-12-31T12:49:03.169Z,18.73
2018-12-31T12:51:32.903Z,21.63
2018-12-31T12:54:02.591Z,27.47
2018-12-31T12:56:32.298Z,24.57
2018-12-31T12:59:02.196Z,12.80
2018-12-31T13:01:31.918Z,17.27
2018-12-31T13:04:01.650Z,10.33
2018-12-31T13:06:31.966Z,18.00
2018-12-31T13:09:01.626Z,11.77
2018-12-31T13:11:31.390Z,12.33
2018-12-31T13:14:01.155Z,13.63
2018-12-31T13:16:30.843Z,12.57
2018-12-31T13:19:00.606Z,11.47
2018-12-31T13:21:29.729Z,7.67
2018-12-31T13:23:58.879Z,7.90
2018-12-31T13:26:27.860Z,11.60
2018-12-31T13:28:56.832Z,9.83
2018-12-31T13:31:25.973Z,8.73
2018-12-31T13:33:55.002Z,9.40
2018-12-31T13:36:25.228Z,7.83
2018-12-31T13:38:54.277Z,8.97
2018-12-31T13:41:23.374Z,7.67
2018-12-31T13:43:52.464Z,8.17
2018-12-31T13:46:21.517Z,8.17
2018-12-31T13:48:50.667Z,9.37
2018-12-31T13:51:21.521Z,9.77
2018-12-31T13:53:50.746Z,7.17
2018-12-31T13:56:19.735Z,14.47
2018-12-31T13:58:48.715Z,50.23
2018-12-31T14:01:17.882Z,24.90
2018-12-31T14:03:46.883Z,29.43
2018-12-31T14:06:16.279Z,26.80
2018-12-31T14:08:45.274Z,10.63
2018-12-31T14:11:14.261Z,35.23
2018-12-31T14:13:43.348Z,21.33
2018-12-31T14:16:12.316Z,26.03
2018-12-31T14:18:41.870Z,18.47
2018-12-31T14:21:10.922Z,28.87
2018-12-31T14:23:40.013Z,11.13
2018-12-31T14:26:09.078Z,12.97
2018-12-31T14:28:38.246Z,22.53
2018-12-31T14:31:07.691Z,10.70
2018-12-31T14:33:37.147Z,12.97
2018-12-31T14:36:06.157Z,13.40
2018-12-31T14:38:35.261Z,11.57
2018-12-31T14:41:04.711Z,12.37
2018-12-31T14:43:33.751Z,9.47
2018-12-31T14:46:02.810Z,14.50
2018-12-31T14:48:31.844Z,11.80
2018-12-31T14:51:03.080Z,14.37
2018-12-31T14:53:32.595Z,11.70
2018-12-31T14:56:01.624Z,10.70
2018-12-31T14:58:30.631Z,10.40
2018-12-31T15:00:59.589Z,13.17
2018-12-31T15:03:28.571Z,6.73
2018-12-31T15:05:57.551Z,7.13
2018-12-31T15:08:26.567Z,7.13
2018-12-31T15:10:55.544Z,9.77
2018-12-31T15:13:24.624Z,8.03
2018-12-31T15:15:53.603Z,7.87
2018-12-31T15:18:22.759Z,8.13
2018-12-31T15:20:51.807Z,8.27
2018-12-31T15:23:20.819Z,19.60
2018-12-31T15:25:49.867Z,27.40
2018-12-31T15:28:19.115Z,43.07
2018-12-31T15:30:48.119Z,15.90
2018-12-31T15:33:17.711Z,17.37
2018-12-31T15:35:47.435Z,13.07
2018-12-31T15:38:17.094Z,14.43
2018-12-31T15:40:46.750Z,12.17
2018-12-31T15:43:16.417Z,10.00
2018-12-31T15:45:46.234Z,11.80
2018-12-31T15:48:15.900Z,15.73
2018-12-31T15:50:45.565Z,11.17
2018-12-31T15:53:15.292Z,16.67
2018-12-31T15:55:45.299Z,11.77
2018-12-31T15:58:15.150Z,11.73
2018-12-31T16:00:44.840Z,11.23
2018-12-31T16:03:15.974Z,10.67
2018-12-31T16:05:45.645Z,11.90
2018-12-31T16:08:15.603Z,10.23
2018-12-31T16:10:45.310Z,9.20
2018-12-31T16:13:14.974Z,10.60
2018-12-31T16:15:46.217Z,12.23
2018-12-31T16:18:16.075Z,11.00
2018-12-31T16:20:45.711Z,10.13
2018-12-31T16:23:15.531Z,13.10
2018-12-31T16:25:45.277Z,15.13
2018-12-31T16:28:15.039Z,12.17
2018-12-31T16:30:44.795Z,14.23
2018-12-31T16:33:14.701Z,12.70
2018-12-31T16:35:44.447Z,12.50
2018-12-31T16:38:14.174Z,12.20
2018-12-31T16:40:43.914Z,11.47
2018-12-31T16:43:13.984Z,12.07
2018-12-31T16:45:43.621Z,34.03
2018-12-31T16:48:13.331Z,17.87
2018-12-31T16:50:43.040Z,17.97
2018-12-31T16:53:12.711Z,18.10
2018-12-31T16:55:42.665Z,15.23
2018-12-31T16:58:12.314Z,20.80
2018-12-31T17:00:41.991Z,24.67
2018-12-31T17:03:14.598Z,17.63
2018-12-31T17:05:44.681Z,14.33
2018-12-31T17:08:14.411Z,16.57
2018-12-31T17:10:44.374Z,16.83
2018-12-31T17:13:16.546Z,15.67
2018-12-31T17:15:46.234Z,17.57
2018-12-31T17:18:15.987Z,14.07
2018-12-31T17:20:45.949Z,17.53
2018-12-31T17:23:15.716Z,16.93
2018-12-31T17:25:45.460Z,13.40
2018-12-31T17:28:15.177Z,14.87
2018-12-31T17:30:45.220Z,13.43
2018-12-31T17:33:14.867Z,21.03
2018-12-31T17:35:44.590Z,20.97
2018-12-31T17:38:14.369Z,19.13
2018-12-31T17:40:44.276Z,14.70
2018-12-31T17:43:14.383Z,15.47
2018-12-31T17:45:44.070Z,19.23
2018-12-31T17:48:16.748Z,16.03
2018-12-31T17:50:46.405Z,19.37
2018-12-31T17:53:16.054Z,17.20
2018-12-31T17:55:46.927Z,24.47
2018-12-31T17:58:16.592Z,19.30
2018-12-31T18:00:49.904Z,19.13
2018-12-31T18:03:18.838Z,22.10
2018-12-31T18:05:48.982Z,22.53
2018-12-31T18:08:18.657Z,21.27
2018-12-31T18:10:48.361Z,18.03
2018-12-31T18:13:18.023Z,20.30
2018-12-31T18:15:47.686Z,19.93
2018-12-31T18:18:17.695Z,23.03
2018-12-31T18:20:47.355Z,20.83
2018-12-31T18:23:17.003Z,29.87
2018-12-31T18:25:46.699Z,26.87
2018-12-31T18:28:16.492Z,24.87
2018-12-31T18:30:46.141Z,25.43
2018-12-31T18:33:15.919Z,28.33
2018-12-31T18:35:45.680Z,27.70
2018-12-31T18:38:15.315Z,27.73
2018-12-31T18:40:45.246Z,26.50
2018-12-31T18:43:15.101Z,27.67
2018-12-31T18:45:44.796Z,31.23
2018-12-31T18:48:14.571Z,29.67
2018-12-31T18:50:44.290Z,29.20
2018-12-31T18:53:13.981Z,27.67
2018-12-31T18:55:43.701Z,31.07
2018-12-31T18:58:13.727Z,22.30
2018-12-31T19:00:43.447Z,23.10
2018-12-31T19:03:13.091Z,21.60
2018-12-31T19:05:43.238Z,24.87
2018-12-31T19:08:12.915Z,23.53
2018-12-31T19:10:42.579Z,23.53
2018-12-31T19:13:12.230Z,26.97
2018-12-31T19:15:41.891Z,30.87
2018-12-31T19:18:12.084Z,28.17
2018-12-31T19:20:41.963Z,27.57
2018-12-31T19:23:11.996Z,23.03
2018-12-31T19:25:41.877Z,25.57
2018-12-31T19:28:11.732Z,21.67
2018-12-31T19:30:41.802Z,22.50
2018-12-31T19:33:13.110Z,27.07
2018-12-31T19:35:43.006Z,27.43
2018-12-31T19:38:12.770Z,26.97
2018-12-31T19:40:42.581Z,24.63
2018-12-31T19:43:12.399Z,23.53
2018-12-31T19:45:42.385Z,24.37
2018-12-31T19:48:12.074Z,22.97
2018-12-31T19:50:41.748Z,25.13
2018-12-31T19:53:11.437Z,29.50
2018-12-31T19:55:41.148Z,31.03
2018-12-31T19:58:10.809Z,28.10
2018-12-31T20:00:40.552Z,29.13
2018-12-31T20:03:10.287Z,32.57
2018-12-31T20:05:39.950Z,30.00
2018-12-31T20:08:09.591Z,29.67
2018-12-31T20:10:39.251Z,34.60
2018-12-31T20:13:08.992Z,33.17
2018-12-31T20:15:38.682Z,32.00
2018-12-31T20:18:08.365Z,29.83
2018-12-31T20:20:38.147Z,28.97
2018-12-31T20:23:07.785Z,31.10
2018-12-31T20:25:37.682Z,28.90
2018-12-31T20:28:07.385Z,33.40
2018-12-31T20:30:37.287Z,38.83
2018-12-31T20:33:06.954Z,34.73
2018-12-31T20:35:36.673Z,31.57
2018-12-31T20:38:06.378Z,30.47
2018-12-31T20:40:36.083Z,29.93
2018-12-31T20:43:05.830Z,29.97
2018-12-31T20:45:35.507Z,29.67
2018-12-31T20:48:05.258Z,29.13
2018-12-31T20:50:35.097Z,32.97
2018-12-31T20:53:04.786Z,31.23
2018-12-31T20:55:34.767Z,31.73
2018-12-31T20:58:04.693Z,26.97
2018-12-31T21:00:34.357Z,27.37
2018-12-31T21:03:04.034Z,29.07
2018-12-31T21:05:33.698Z,31.73
2018-12-31T21:08:03.478Z,33.67
2018-12-31T21:10:34.807Z,30.10
2018-12-31T21:13:04.594Z,30.10
2018-12-31T21:15:34.223Z,25.77
2018-12-31T21:18:04.079Z,26.33
2018-12-31T21:20:33.778Z,25.87
2018-12-31T21:23:03.461Z,31.10
2018-12-31T21:25:33.099Z,29.30
2018-12-31T21:28:02.801Z,29.80
2018-12-31T21:30:32.478Z,32.13
2018-12-31T21:33:02.225Z,31.03
2018-12-31T21:35:31.945Z,30.40
2018-12-31T21:38:01.613Z,28.97
2018-12-31T21:40:31.270Z,28.87
2018-12-31T21:43:01.138Z,34.60
2018-12-31T21:45:30.799Z,33.33
2018-12-31T21:48:00.492Z,30.33
2018-12-31T21:50:30.250Z,31.40
2018-12-31T21:52:59.901Z,30.93
2018-12-31T21:55:29.614Z,28.27
2018-12-31T21:57:59.306Z,32.47
2018-12-31T22:00:28.993Z,35.67
2018-12-31T22:02:58.688Z,36.40
2018-12-31T22:05:28.325Z,36.53
2018-12-31T22:07:58.086Z,35.53
2018-12-31T22:10:27.787Z,34.33
2018-12-31T22:12:57.608Z,35.20
2018-12-31T22:15:27.241Z,34.13
2018-12-31T22:17:57.034Z,44.77
2018-12-31T22:20:26.723Z,38.97
2018-12-31T22:22:56.450Z,43.03
2018-12-31T22:25:26.205Z,39.90
2018-12-31T22:27:55.888Z,67.17
2018-12-31T22:30:25.636Z,53.93
2018-12-31T22:32:55.347Z,55.87
2018-12-31T22:35:25.158Z,56.47
2018-12-31T22:37:54.978Z,54.63
2018-12-31T22:40:24.646Z,70.70
2018-12-31T22:42:54.396Z,77.27
2018-12-31T22:45:24.072Z,69.67
2018-12-31T22:47:53.761Z,63.10
2018-12-31T22:50:23.518Z,74.70
2018-12-31T22:52:53.307Z,106.63
2018-12-31T22:55:23.018Z,87.10
2018-12-31T22:57:52.794Z,92.57
2018-12-31T23:00:26.922Z,102.97
2018-12-31T23:02:56.750Z,146.63
2018-12-31T23:05:26.766Z,173.17
2018-12-31T23:07:56.582Z,368.87
2018-12-31T23:10:26.306Z,449.07
2018-12-31T23:12:56.075Z,741.27
2018-12-31T23:15:26.906Z,702.57
2018-12-31T23:17:56.671Z,614.87
2018-12-31T23:20:26.490Z,563.77
2018-12-31T23:22:56.169Z,523.93
2018-12-31T23:25:25.893Z,499.97
2018-12-31T23:27:55.614Z,489.23
2018-12-31T23:30:25.325Z,503.13
2018-12-31T23:32:55.213Z,479.37
2018-12-31T23:35:24.944Z,463.57
2018-12-31T23:37:54.679Z,447.97
2018-12-31T23:40:24.354Z,419.30
2018-12-31T23:42:54.070Z,420.60
2018-12-31T23:45:23.746Z,412.87
2018-12-31T23:47:53.898Z,411.53
2018-12-31T23:50:23.731Z,373.00
2018-12-31T23:52:53.521Z,371.73
2018-12-31T23:55:23.202Z,356.00
2018-12-31T23:57:52.980Z,339.90
